createdAt,value
2023-02-21T00:00:49.364Z,9.40
2023-02-21T00:01:49.343Z,9.39
2023-02-21T00:02:49.317Z,9.36
2023-02-21T00:03:49.292Z,9.38
2023-02-21T00:04:49.264Z,9.38
2023-02-21T00:05:49.401Z,9.43
2023-02-21T00:06:49.214Z,9.43
2023-02-21T00:07:49.195Z,9.42
2023-02-21T00:08:49.162Z,9.39
2023-02-21T00:09:49.146Z,9.38
2023-02-21T00:10:49.113Z,9.39
2023-02-21T00:11:49.088Z,9.38
2023-02-21T00:12:49.079Z,9.29
2023-02-21T00:13:49.052Z,9.39
2023-02-21T00:14:49.011Z,9.33
2023-02-21T00:15:48.992Z,9.38
2023-02-21T00:16:48.976Z,9.32
2023-02-21T00:17:48.942Z,9.38
2023-02-21T00:18:48.915Z,9.39
2023-02-21T00:19:48.892Z,9.38
2023-02-21T00:20:48.857Z,9.38
2023-02-21T00:21:48.833Z,9.40
2023-02-21T00:22:48.809Z,9.32
2023-02-21T00:23:48.782Z,9.39
2023-02-21T00:24:48.752Z,9.31
2023-02-21T00:25:48.728Z,9.47
2023-02-21T00:26:48.701Z,9.35
2023-02-21T00:27:48.684Z,9.38
2023-02-21T00:28:48.675Z,9.40
2023-02-21T00:29:48.631Z,9.47
2023-02-21T00:30:48.669Z,9.42
2023-02-21T00:31:48.586Z,9.35
2023-02-21T00:32:48.613Z,9.39
2023-02-21T00:33:48.522Z,9.39
2023-02-21T00:34:48.496Z,9.33
2023-02-21T00:35:48.475Z,9.43
2023-02-21T00:36:48.443Z,9.39
2023-02-21T00:37:48.420Z,9.29
2023-02-21T00:38:48.396Z,9.40
2023-02-21T00:39:48.372Z,9.38
2023-02-21T00:40:48.348Z,9.35
2023-02-21T00:41:48.331Z,9.39
2023-02-21T00:42:48.291Z,9.31
2023-02-21T00:43:48.279Z,9.39
2023-02-21T00:44:48.258Z,9.32
2023-02-21T00:45:48.269Z,9.40
2023-02-21T00:46:48.189Z,9.31
2023-02-21T00:47:48.167Z,9.32
2023-02-21T00:48:48.138Z,9.29
2023-02-21T00:49:48.111Z,9.38
2023-02-21T00:50:48.093Z,9.35
2023-02-21T00:51:48.070Z,9.31
2023-02-21T00:52:48.032Z,9.36
2023-02-21T00:53:48.004Z,9.38
2023-02-21T00:54:50.496Z,9.31
2023-02-21T00:55:47.956Z,9.31
2023-02-21T00:56:47.925Z,9.31
2023-02-21T00:57:47.909Z,9.31
2023-02-21T00:58:47.881Z,9.35
2023-02-21T00:59:47.857Z,9.40
2023-02-21T01:00:47.848Z,9.38
2023-02-21T01:01:47.808Z,9.32
2023-02-21T01:02:47.777Z,9.32
2023-02-21T01:03:47.758Z,9.33
2023-02-21T01:04:47.732Z,9.35
2023-02-21T01:05:47.701Z,9.38
2023-02-21T01:06:47.672Z,9.32
2023-02-21T01:07:47.651Z,9.28
2023-02-21T01:08:47.627Z,9.33
2023-02-21T01:09:47.609Z,9.31
2023-02-21T01:10:47.582Z,9.29
2023-02-21T01:11:47.561Z,9.35
2023-02-21T01:12:47.539Z,9.42
2023-02-21T01:13:47.510Z,9.32
2023-02-21T01:14:47.484Z,9.32
2023-02-21T01:15:47.477Z,9.32
2023-02-21T01:16:47.445Z,9.24
2023-02-21T01:17:47.403Z,9.35
2023-02-21T01:18:47.375Z,9.31
2023-02-21T01:19:47.356Z,9.33
2023-02-21T01:20:47.319Z,9.26
2023-02-21T01:21:47.300Z,9.32
2023-02-21T01:22:47.276Z,9.33
2023-02-21T01:23:47.248Z,9.29
2023-02-21T01:24:47.231Z,9.20
2023-02-21T01:25:47.195Z,9.26
2023-02-21T01:26:47.174Z,9.23
2023-02-21T01:27:47.146Z,9.33
2023-02-21T01:28:47.115Z,9.33
2023-02-21T01:29:47.088Z,9.24
2023-02-21T01:30:47.101Z,9.32
2023-02-21T01:31:47.038Z,9.33
2023-02-21T01:32:47.040Z,9.38
2023-02-21T01:33:46.986Z,9.36
2023-02-21T01:34:46.967Z,9.38
2023-02-21T01:35:46.943Z,9.28
2023-02-21T01:36:46.917Z,9.24
2023-02-21T01:37:46.884Z,9.32
2023-02-21T01:38:46.863Z,9.32
2023-02-21T01:39:46.844Z,9.31
2023-02-21T01:40:46.814Z,9.33
2023-02-21T01:41:46.782Z,9.31
2023-02-21T01:42:47.626Z,9.33
2023-02-21T01:43:46.732Z,9.29
2023-02-21T01:44:46.713Z,9.26
2023-02-21T01:45:46.682Z,9.31
2023-02-21T01:46:46.660Z,9.26
2023-02-21T01:47:46.632Z,9.26
2023-02-21T01:48:46.628Z,9.38
2023-02-21T01:49:46.576Z,9.33
2023-02-21T01:50:46.601Z,9.23
2023-02-21T01:51:46.529Z,9.26
2023-02-21T01:52:46.502Z,9.36
2023-02-21T01:53:46.474Z,9.32
2023-02-21T01:54:46.460Z,9.33
2023-02-21T01:55:46.423Z,9.23
2023-02-21T01:56:46.402Z,9.24
2023-02-21T01:57:46.380Z,9.26
2023-02-21T01:58:46.351Z,9.28
2023-02-21T01:59:46.324Z,9.29
2023-02-21T02:00:46.306Z,9.24
2023-02-21T02:01:46.307Z,9.33
2023-02-21T02:02:46.253Z,9.32
2023-02-21T02:03:46.225Z,9.24
2023-02-21T02:04:46.285Z,9.21
2023-02-21T02:05:46.178Z,9.20
2023-02-21T02:06:46.158Z,9.31
2023-02-21T02:07:46.172Z,9.28
2023-02-21T02:08:46.158Z,9.24
2023-02-21T02:09:46.072Z,9.24
2023-02-21T02:10:46.052Z,9.24
2023-02-21T02:11:46.017Z,9.29
2023-02-21T02:12:45.992Z,9.33
2023-02-21T02:13:45.964Z,9.29
2023-02-21T02:14:45.945Z,9.26
2023-02-21T02:15:45.948Z,9.28
2023-02-21T02:16:45.922Z,9.23
2023-02-21T02:17:45.870Z,9.33
2023-02-21T02:18:45.870Z,9.36
2023-02-21T02:19:45.844Z,9.26
2023-02-21T02:20:45.814Z,9.32
2023-02-21T02:21:45.760Z,9.32
2023-02-21T02:22:45.738Z,9.26
2023-02-21T02:23:45.709Z,9.36
2023-02-21T02:24:45.687Z,9.24
2023-02-21T02:25:45.659Z,9.32
2023-02-21T02:26:45.634Z,9.38
2023-02-21T02:27:45.617Z,9.28
2023-02-21T02:28:45.593Z,9.33
2023-02-21T02:29:45.557Z,9.29
2023-02-21T02:30:45.542Z,9.26
2023-02-21T02:31:45.670Z,9.24
2023-02-21T02:32:45.486Z,9.28
2023-02-21T02:33:45.454Z,9.29
2023-02-21T02:34:45.433Z,9.32
2023-02-21T02:35:45.405Z,9.32
2023-02-21T02:36:45.400Z,9.35
2023-02-21T02:37:45.361Z,9.29
2023-02-21T02:38:45.330Z,9.31
2023-02-21T02:39:45.299Z,9.32
2023-02-21T02:40:45.282Z,9.29
2023-02-21T02:41:45.254Z,9.23
2023-02-21T02:42:45.225Z,9.33
2023-02-21T02:43:45.200Z,9.33
2023-02-21T02:44:45.186Z,9.36
2023-02-21T02:45:45.153Z,9.33
2023-02-21T02:46:45.128Z,9.33
2023-02-21T02:47:45.098Z,9.32
2023-02-21T02:48:45.074Z,9.35
2023-02-21T02:49:45.049Z,9.32
2023-02-21T02:50:45.026Z,9.32
2023-02-21T02:51:44.997Z,9.33
2023-02-21T02:52:44.989Z,9.29
2023-02-21T02:53:44.938Z,9.32
2023-02-21T02:54:44.918Z,9.24
2023-02-21T02:55:44.888Z,9.28
2023-02-21T02:56:44.874Z,9.26
2023-02-21T02:57:44.841Z,9.31
2023-02-21T02:58:44.824Z,9.35
2023-02-21T02:59:44.785Z,9.29
2023-02-21T03:00:44.774Z,9.35
2023-02-21T03:01:44.789Z,9.36
2023-02-21T03:02:44.723Z,9.33
2023-02-21T03:03:44.788Z,9.29
2023-02-21T03:04:44.659Z,9.24
2023-02-21T03:05:44.634Z,9.24
2023-02-21T03:06:44.622Z,9.28
2023-02-21T03:07:44.582Z,9.31
2023-02-21T03:08:44.583Z,9.24
2023-02-21T03:09:44.538Z,9.36
2023-02-21T03:10:44.510Z,9.31
2023-02-21T03:11:44.483Z,9.32
2023-02-21T03:12:44.456Z,9.32
2023-02-21T03:13:44.433Z,9.32
2023-02-21T03:14:44.404Z,9.35
2023-02-21T03:15:44.419Z,9.28
2023-02-21T03:16:44.354Z,9.28
2023-02-21T03:17:44.333Z,9.31
2023-02-21T03:18:44.304Z,9.33
2023-02-21T03:19:44.282Z,9.29
2023-02-21T03:20:44.251Z,9.24
2023-02-21T03:21:44.224Z,9.35
2023-02-21T03:22:44.209Z,9.33
2023-02-21T03:23:44.176Z,9.23
2023-02-21T03:24:44.173Z,9.28
2023-02-21T03:25:44.126Z,9.28
2023-02-21T03:26:44.113Z,9.28
2023-02-21T03:27:44.075Z,9.20
2023-02-21T03:28:44.057Z,9.26
2023-02-21T03:29:44.023Z,9.23
2023-02-21T03:30:44.008Z,9.23
2023-02-21T03:31:44.087Z,9.26
2023-02-21T03:32:43.947Z,9.35
2023-02-21T03:33:43.917Z,9.33
2023-02-21T03:34:43.896Z,9.28
2023-02-21T03:35:43.870Z,9.20
2023-02-21T03:36:43.847Z,9.35
2023-02-21T03:37:43.824Z,9.28
2023-02-21T03:38:43.801Z,9.29
2023-02-21T03:39:43.774Z,9.38
2023-02-21T03:40:43.772Z,9.23
2023-02-21T03:41:43.716Z,9.31
2023-02-21T03:42:43.692Z,9.31
2023-02-21T03:43:43.671Z,9.23
2023-02-21T03:44:43.640Z,9.21
2023-02-21T03:45:43.613Z,9.23
2023-02-21T03:46:43.676Z,9.28
2023-02-21T03:47:43.576Z,9.28
2023-02-21T03:48:43.546Z,9.23
2023-02-21T03:49:43.510Z,9.31
2023-02-21T03:50:43.487Z,9.23
2023-02-21T03:51:43.458Z,9.26
2023-02-21T03:52:43.442Z,9.26
2023-02-21T03:53:43.412Z,9.24
2023-02-21T03:54:43.389Z,9.21
2023-02-21T03:55:43.372Z,9.31
2023-02-21T03:56:43.354Z,9.23
2023-02-21T03:57:43.311Z,9.26
2023-02-21T03:58:43.287Z,9.28
2023-02-21T03:59:43.257Z,9.21
2023-02-21T04:00:43.260Z,9.23
2023-02-21T04:01:43.230Z,9.28
2023-02-21T04:02:43.187Z,9.28
2023-02-21T04:03:43.157Z,9.26
2023-02-21T04:04:43.144Z,9.21
2023-02-21T04:05:43.109Z,9.24
2023-02-21T04:06:43.084Z,9.26
2023-02-21T04:07:43.059Z,9.28
2023-02-21T04:08:43.035Z,9.23
2023-02-21T04:09:43.013Z,9.21
2023-02-21T04:10:51.638Z,9.24
2023-02-21T04:11:42.959Z,9.21
2023-02-21T04:12:42.983Z,9.29
2023-02-21T04:13:42.901Z,9.17
2023-02-21T04:14:42.882Z,9.21
2023-02-21T04:15:42.856Z,9.31
2023-02-21T04:16:42.829Z,9.18
2023-02-21T04:17:42.812Z,9.18
2023-02-21T04:18:42.784Z,9.24
2023-02-21T04:19:42.755Z,9.23
2023-02-21T04:20:42.727Z,9.26
2023-02-21T04:21:42.696Z,9.17
2023-02-21T04:22:45.739Z,9.23
2023-02-21T04:23:42.658Z,9.21
2023-02-21T04:24:42.634Z,9.29
2023-02-21T04:25:42.597Z,9.24
2023-02-21T04:26:42.582Z,9.28
2023-02-21T04:27:42.548Z,9.29
2023-02-21T04:28:42.549Z,9.23
2023-02-21T04:29:42.510Z,9.21
2023-02-21T04:30:42.546Z,9.15
2023-02-21T04:31:42.559Z,9.18
2023-02-21T04:32:42.560Z,9.11
2023-02-21T04:33:42.396Z,9.15
2023-02-21T04:34:42.371Z,9.11
2023-02-21T04:35:42.348Z,9.14
2023-02-21T04:36:42.332Z,9.15
2023-02-21T04:37:42.295Z,9.13
2023-02-21T04:38:42.271Z,9.18
2023-02-21T04:39:42.246Z,9.13
2023-02-21T04:40:42.228Z,9.15
2023-02-21T04:41:42.207Z,9.14
2023-02-21T04:42:42.165Z,9.15
2023-02-21T04:43:42.140Z,9.08
2023-02-21T04:44:44.730Z,9.14
2023-02-21T04:45:42.101Z,9.11
2023-02-21T04:46:42.064Z,9.13
2023-02-21T04:47:42.044Z,9.11
2023-02-21T04:48:42.014Z,9.05
2023-02-21T04:49:41.983Z,8.98
2023-02-21T04:50:41.963Z,9.08
2023-02-21T04:51:41.944Z,9.11
2023-02-21T04:52:41.915Z,9.08
2023-02-21T04:53:41.883Z,9.04
2023-02-21T04:54:41.860Z,8.96
2023-02-21T04:55:41.834Z,9.01
2023-02-21T04:56:41.895Z,9.08
2023-02-21T04:57:41.782Z,8.98
2023-02-21T04:58:45.510Z,8.99
2023-02-21T04:59:41.736Z,9.04
2023-02-21T05:00:41.735Z,9.02
2023-02-21T05:01:41.686Z,9.01
2023-02-21T05:02:41.660Z,9.01
2023-02-21T05:03:41.642Z,9.02
2023-02-21T05:04:41.612Z,8.96
2023-02-21T05:05:41.582Z,8.99
2023-02-21T05:06:41.558Z,8.98
2023-02-21T05:07:41.527Z,8.94
2023-02-21T05:08:41.499Z,8.95
2023-02-21T05:09:41.472Z,9.08
2023-02-21T05:10:45.717Z,9.01
2023-02-21T05:11:41.445Z,9.04
2023-02-21T05:12:41.404Z,9.02
2023-02-21T05:13:41.370Z,8.95
2023-02-21T05:14:41.349Z,9.01
2023-02-21T05:15:41.327Z,8.98
2023-02-21T05:16:41.373Z,8.94
2023-02-21T05:17:41.277Z,8.91
2023-02-21T05:18:41.250Z,8.95
2023-02-21T05:19:41.221Z,8.96
2023-02-21T05:20:41.195Z,8.86
2023-02-21T05:21:41.163Z,8.95
2023-02-21T05:22:41.157Z,8.96
2023-02-21T05:23:41.216Z,8.96
2023-02-21T05:24:41.098Z,9.01
2023-02-21T05:25:41.069Z,8.94
2023-02-21T05:26:41.038Z,9.02
2023-02-21T05:27:41.023Z,8.91
2023-02-21T05:28:40.999Z,8.95
2023-02-21T05:29:40.964Z,8.98
2023-02-21T05:30:41.112Z,8.89
2023-02-21T05:31:40.914Z,8.79
2023-02-21T05:32:40.909Z,8.83
2023-02-21T05:33:40.871Z,8.89
2023-02-21T05:34:40.875Z,8.91
2023-02-21T05:35:40.806Z,8.92
2023-02-21T05:36:41.207Z,8.92
2023-02-21T05:37:40.762Z,8.91
2023-02-21T05:38:40.729Z,8.91
2023-02-21T05:39:40.709Z,8.86
2023-02-21T05:40:40.679Z,8.84
2023-02-21T05:41:40.657Z,8.84
2023-02-21T05:42:40.636Z,8.84
2023-02-21T05:43:40.615Z,8.86
2023-02-21T05:44:40.603Z,8.91
2023-02-21T05:45:40.568Z,8.81
2023-02-21T05:46:40.539Z,8.91
2023-02-21T05:47:40.504Z,8.87
2023-02-21T05:48:40.498Z,8.87
2023-02-21T05:49:40.457Z,8.92
2023-02-21T05:50:40.423Z,8.87
2023-02-21T05:51:40.405Z,8.77
2023-02-21T05:52:40.371Z,8.86
2023-02-21T05:53:40.349Z,8.89
2023-02-21T05:54:40.323Z,8.91
2023-02-21T05:55:40.304Z,8.92
2023-02-21T05:56:40.288Z,8.92
2023-02-21T05:57:40.248Z,8.96
2023-02-21T05:58:40.222Z,8.80
2023-02-21T05:59:40.205Z,8.89
2023-02-21T06:00:40.165Z,8.91
2023-02-21T06:01:40.143Z,8.92
2023-02-21T06:02:40.117Z,8.77
2023-02-21T06:03:40.167Z,8.79
2023-02-21T06:04:40.115Z,8.86
2023-02-21T06:05:40.039Z,8.86
2023-02-21T06:06:40.016Z,8.83
2023-02-21T06:07:39.990Z,8.84
2023-02-21T06:08:39.963Z,8.94
2023-02-21T06:09:39.944Z,8.84
2023-02-21T06:10:39.908Z,8.79
2023-02-21T06:11:39.884Z,8.83
2023-02-21T06:12:39.863Z,8.77
2023-02-21T06:13:39.835Z,8.79
2023-02-21T06:14:39.802Z,8.86
2023-02-21T06:15:39.810Z,8.81
2023-02-21T06:16:39.757Z,8.79
2023-02-21T06:17:39.733Z,8.91
2023-02-21T06:18:39.700Z,8.86
2023-02-21T06:19:39.678Z,8.94
2023-02-21T06:20:39.678Z,8.77
2023-02-21T06:21:39.627Z,8.79
2023-02-21T06:22:39.603Z,8.80
2023-02-21T06:23:39.574Z,8.81
2023-02-21T06:24:39.553Z,8.79
2023-02-21T06:25:39.524Z,8.92
2023-02-21T06:26:39.494Z,8.87
2023-02-21T06:27:39.476Z,8.94
2023-02-21T06:28:39.444Z,8.81
2023-02-21T06:29:39.428Z,8.84
2023-02-21T06:30:39.484Z,8.81
2023-02-21T06:31:39.531Z,8.89
2023-02-21T06:32:39.351Z,8.92
2023-02-21T06:33:39.334Z,8.92
2023-02-21T06:34:39.304Z,8.84
2023-02-21T06:35:39.280Z,8.94
2023-02-21T06:36:39.276Z,8.81
2023-02-21T06:37:39.232Z,8.95
2023-02-21T06:38:39.205Z,8.81
2023-02-21T06:39:39.190Z,8.87
2023-02-21T06:40:39.162Z,8.86
2023-02-21T06:41:39.125Z,8.87
2023-02-21T06:42:39.099Z,8.84
2023-02-21T06:43:39.070Z,8.81
2023-02-21T06:44:39.052Z,8.77
2023-02-21T06:45:39.021Z,8.80
2023-02-21T06:46:38.995Z,8.87
2023-02-21T06:47:38.970Z,8.76
2023-02-21T06:48:38.945Z,8.89
2023-02-21T06:49:38.925Z,8.89
2023-02-21T06:50:38.896Z,8.91
2023-02-21T06:51:38.868Z,8.84
2023-02-21T06:52:38.864Z,8.79
2023-02-21T06:53:38.822Z,8.81
2023-02-21T06:54:38.793Z,8.87
2023-02-21T06:55:38.771Z,8.89
2023-02-21T06:56:38.754Z,8.87
2023-02-21T06:57:38.723Z,8.86
2023-02-21T06:58:38.688Z,8.86
2023-02-21T06:59:38.675Z,8.86
2023-02-21T07:00:38.639Z,8.80
2023-02-21T07:01:38.696Z,8.81
2023-02-21T07:02:38.588Z,8.79
2023-02-21T07:03:38.557Z,8.83
2023-02-21T07:04:38.652Z,8.89
2023-02-21T07:05:38.585Z,8.84
2023-02-21T07:06:38.481Z,8.79
2023-02-21T07:07:38.467Z,8.76
2023-02-21T07:08:38.460Z,8.89
2023-02-21T07:09:38.415Z,8.86
2023-02-21T07:10:38.383Z,8.86
2023-02-21T07:11:38.355Z,8.83
2023-02-21T07:12:38.327Z,8.81
2023-02-21T07:13:38.308Z,8.81
2023-02-21T07:14:38.280Z,8.79
2023-02-21T07:15:38.308Z,8.79
2023-02-21T07:16:38.226Z,8.84
2023-02-21T07:17:38.201Z,8.71
2023-02-21T07:18:38.175Z,8.83
2023-02-21T07:19:38.158Z,8.81
2023-02-21T07:20:39.424Z,8.79
2023-02-21T07:21:39.201Z,8.83
2023-02-21T07:22:38.075Z,8.74
2023-02-21T07:23:38.049Z,8.71
2023-02-21T07:24:38.040Z,8.86
2023-02-21T07:25:38.029Z,8.80
2023-02-21T07:26:37.963Z,8.79
2023-02-21T07:27:37.945Z,8.80
2023-02-21T07:28:37.911Z,8.84
2023-02-21T07:29:37.893Z,8.80
2023-02-21T07:30:37.944Z,8.84
2023-02-21T07:31:37.914Z,8.76
2023-02-21T07:32:37.816Z,8.74
2023-02-21T07:33:37.794Z,8.81
2023-02-21T07:34:37.763Z,8.94
2023-02-21T07:35:37.742Z,8.84
2023-02-21T07:36:39.967Z,8.83
2023-02-21T07:37:37.695Z,8.87
2023-02-21T07:38:37.671Z,8.81
2023-02-21T07:39:37.639Z,8.84
2023-02-21T07:40:37.624Z,8.81
2023-02-21T07:41:37.586Z,8.80
2023-02-21T07:42:37.554Z,8.80
2023-02-21T07:43:37.556Z,8.80
2023-02-21T07:44:37.517Z,8.86
2023-02-21T07:45:37.492Z,8.77
2023-02-21T07:46:37.522Z,8.77
2023-02-21T07:47:37.432Z,8.83
2023-02-21T07:48:37.406Z,8.81
2023-02-21T07:49:37.382Z,8.83
2023-02-21T07:50:37.349Z,8.89
2023-02-21T07:51:37.336Z,8.89
2023-02-21T07:52:37.297Z,8.83
2023-02-21T07:53:37.283Z,8.89
2023-02-21T07:54:37.254Z,8.84
2023-02-21T07:55:37.229Z,8.83
2023-02-21T07:56:37.234Z,8.81
2023-02-21T07:57:37.190Z,8.80
2023-02-21T07:58:37.143Z,8.87
2023-02-21T07:59:37.127Z,8.79
2023-02-21T08:00:40.255Z,8.83
2023-02-21T08:01:37.094Z,8.89
2023-02-21T08:02:37.043Z,8.79
2023-02-21T08:03:37.022Z,8.83
2023-02-21T08:04:37.043Z,8.80
2023-02-21T08:05:36.978Z,8.84
2023-02-21T08:06:36.954Z,8.81
2023-02-21T08:07:36.941Z,8.80
2023-02-21T08:08:36.892Z,8.83
2023-02-21T08:09:36.873Z,8.80
2023-02-21T08:10:36.838Z,8.77
2023-02-21T08:11:36.845Z,8.81
2023-02-21T08:12:36.841Z,8.80
2023-02-21T08:13:36.770Z,8.83
2023-02-21T08:14:36.730Z,8.79
2023-02-21T08:15:36.745Z,8.80
2023-02-21T08:16:36.766Z,8.77
2023-02-21T08:17:36.660Z,8.81
2023-02-21T08:18:36.633Z,8.79
2023-02-21T08:19:36.618Z,8.76
2023-02-21T08:20:36.584Z,8.87
2023-02-21T08:21:36.557Z,8.83
2023-02-21T08:22:36.523Z,8.74
2023-02-21T08:23:36.517Z,8.80
2023-02-21T08:24:36.475Z,8.81
2023-02-21T08:25:36.457Z,8.80
2023-02-21T08:26:36.421Z,8.80
2023-02-21T08:27:36.406Z,8.76
2023-02-21T08:28:36.393Z,8.81
2023-02-21T08:29:36.357Z,8.80
2023-02-21T08:30:36.342Z,8.84
2023-02-21T08:31:36.358Z,8.81
2023-02-21T08:32:36.273Z,8.89
2023-02-21T08:33:36.261Z,8.84
2023-02-21T08:34:36.225Z,8.83
2023-02-21T08:35:36.201Z,8.83
2023-02-21T08:36:36.183Z,8.86
2023-02-21T08:37:36.158Z,8.80
2023-02-21T08:38:36.117Z,8.80
2023-02-21T08:39:36.094Z,8.74
2023-02-21T08:40:36.065Z,8.76
2023-02-21T08:41:36.046Z,8.83
2023-02-21T08:42:36.012Z,8.81
2023-02-21T08:43:35.998Z,8.76
2023-02-21T08:44:35.980Z,8.86
2023-02-21T08:45:35.944Z,8.80
2023-02-21T08:46:36.029Z,8.77
2023-02-21T08:47:35.900Z,8.86
2023-02-21T08:48:35.862Z,8.83
2023-02-21T08:49:35.846Z,8.84
2023-02-21T08:50:35.816Z,8.84
2023-02-21T08:51:35.792Z,8.76
2023-02-21T08:52:35.770Z,8.80
2023-02-21T08:53:35.740Z,8.79
2023-02-21T08:54:35.710Z,8.79
2023-02-21T08:55:35.687Z,8.79
2023-02-21T08:56:35.662Z,8.86
2023-02-21T08:57:35.652Z,8.80
2023-02-21T08:58:37.898Z,8.76
2023-02-21T08:59:35.669Z,8.77
2023-02-21T09:00:35.573Z,8.79
2023-02-21T09:01:35.542Z,8.74
2023-02-21T09:02:35.510Z,8.80
2023-02-21T09:03:35.486Z,8.77
2023-02-21T09:04:35.454Z,8.86
2023-02-21T09:05:35.440Z,8.79
2023-02-21T09:06:35.418Z,8.77
2023-02-21T09:07:35.390Z,8.71
2023-02-21T09:08:35.361Z,8.77
2023-02-21T09:09:35.340Z,8.80
2023-02-21T09:10:35.372Z,8.83
2023-02-21T09:11:35.284Z,8.76
2023-02-21T09:12:35.253Z,8.80
2023-02-21T09:13:35.228Z,8.70
2023-02-21T09:14:35.196Z,8.80
2023-02-21T09:15:35.180Z,8.76
2023-02-21T09:16:35.194Z,8.77
2023-02-21T09:17:35.129Z,8.83
2023-02-21T09:18:35.094Z,8.81
2023-02-21T09:19:35.083Z,8.76
2023-02-21T09:20:35.047Z,8.87
2023-02-21T09:21:35.024Z,8.76
2023-02-21T09:22:34.995Z,8.84
2023-02-21T09:23:34.989Z,8.81
2023-02-21T09:24:34.952Z,8.71
2023-02-21T09:25:34.934Z,8.80
2023-02-21T09:26:34.905Z,8.89
2023-02-21T09:27:34.872Z,8.76
2023-02-21T09:28:34.840Z,8.84
2023-02-21T09:29:45.468Z,8.77
2023-02-21T09:30:34.940Z,8.81
2023-02-21T09:31:34.796Z,8.80
2023-02-21T09:32:34.807Z,8.79
2023-02-21T09:33:34.721Z,8.89
2023-02-21T09:34:34.688Z,8.76
2023-02-21T09:35:34.676Z,8.83
2023-02-21T09:36:34.632Z,8.89
2023-02-21T09:37:34.621Z,8.89
2023-02-21T09:38:34.588Z,8.94
2023-02-21T09:39:34.568Z,8.73
2023-02-21T09:40:34.533Z,8.87
2023-02-21T09:41:34.518Z,8.94
2023-02-21T09:42:34.486Z,8.89
2023-02-21T09:43:34.462Z,8.91
2023-02-21T09:44:34.432Z,8.79
2023-02-21T09:45:34.532Z,8.87
2023-02-21T09:46:34.377Z,8.87
2023-02-21T09:47:34.361Z,8.92
2023-02-21T09:48:34.355Z,8.91
2023-02-21T09:49:34.313Z,8.84
2023-02-21T09:50:34.295Z,8.87
2023-02-21T09:51:34.255Z,8.92
2023-02-21T09:52:34.236Z,8.92
2023-02-21T09:53:34.216Z,8.79
2023-02-21T09:54:34.170Z,8.87
2023-02-21T09:55:34.153Z,9.01
2023-02-21T09:56:34.132Z,8.89
2023-02-21T09:57:34.101Z,8.87
2023-02-21T09:58:34.072Z,8.81
2023-02-21T09:59:34.040Z,8.80
2023-02-21T10:00:34.021Z,8.87
2023-02-21T10:01:34.069Z,8.87
2023-02-21T10:02:33.971Z,8.86
2023-02-21T10:03:33.936Z,8.89
2023-02-21T10:04:33.973Z,8.91
2023-02-21T10:05:33.895Z,8.89
2023-02-21T10:06:33.880Z,8.87
2023-02-21T10:07:33.837Z,8.87
2023-02-21T10:08:33.827Z,8.95
2023-02-21T10:09:33.789Z,8.95
2023-02-21T10:10:33.761Z,8.91
2023-02-21T10:11:33.735Z,8.99
2023-02-21T10:12:33.719Z,8.92
2023-02-21T10:13:33.683Z,9.04
2023-02-21T10:14:33.666Z,9.02
2023-02-21T10:15:33.645Z,9.04
2023-02-21T10:16:33.676Z,9.02
2023-02-21T10:17:33.591Z,9.08
2023-02-21T10:18:33.570Z,8.99
2023-02-21T10:19:33.531Z,9.04
2023-02-21T10:20:33.540Z,8.96
2023-02-21T10:21:33.507Z,9.04
2023-02-21T10:22:33.467Z,8.99
2023-02-21T10:23:33.431Z,8.99
2023-02-21T10:24:33.413Z,8.99
2023-02-21T10:25:33.374Z,9.05
2023-02-21T10:26:33.371Z,9.01
2023-02-21T10:27:33.348Z,8.98
2023-02-21T10:28:33.306Z,9.01
2023-02-21T10:29:33.274Z,9.05
2023-02-21T10:30:33.335Z,8.99
2023-02-21T10:31:33.329Z,8.98
2023-02-21T10:32:33.234Z,8.99
2023-02-21T10:33:33.176Z,9.10
2023-02-21T10:34:33.156Z,9.02
2023-02-21T10:35:33.128Z,9.01
2023-02-21T10:36:33.122Z,9.01
2023-02-21T10:37:33.138Z,9.01
2023-02-21T10:38:33.065Z,9.04
2023-02-21T10:39:33.022Z,9.02
2023-02-21T10:40:33.002Z,9.08
2023-02-21T10:41:32.967Z,8.98
2023-02-21T10:42:32.958Z,8.99
2023-02-21T10:43:32.920Z,9.13
2023-02-21T10:44:32.897Z,9.14
2023-02-21T10:45:32.869Z,9.14
2023-02-21T10:46:32.849Z,9.08
2023-02-21T10:47:32.811Z,9.14
2023-02-21T10:48:32.801Z,9.08
2023-02-21T10:49:32.761Z,9.10
2023-02-21T10:50:32.747Z,9.08
2023-02-21T10:51:32.728Z,9.10
2023-02-21T10:52:33.681Z,9.17
2023-02-21T10:53:32.660Z,9.17
2023-02-21T10:54:35.138Z,9.17
2023-02-21T10:55:33.600Z,9.15
2023-02-21T10:56:32.594Z,9.11
2023-02-21T10:57:32.557Z,9.15
2023-02-21T10:58:32.540Z,9.17
2023-02-21T10:59:32.508Z,9.14
2023-02-21T11:00:32.491Z,9.18
2023-02-21T11:01:32.641Z,9.24
2023-02-21T11:02:32.491Z,9.18
2023-02-21T11:03:32.416Z,9.18
2023-02-21T11:04:32.388Z,9.17
2023-02-21T11:05:32.361Z,9.23
2023-02-21T11:06:32.346Z,9.29
2023-02-21T11:07:32.304Z,9.24
2023-02-21T11:08:32.306Z,9.26
2023-02-21T11:09:32.259Z,9.26
2023-02-21T11:10:32.252Z,9.28
2023-02-21T11:11:32.208Z,9.20
2023-02-21T11:12:32.187Z,9.20
2023-02-21T11:13:32.148Z,9.20
2023-02-21T11:14:32.142Z,9.11
2023-02-21T11:15:32.145Z,9.31
2023-02-21T11:16:32.084Z,9.21
2023-02-21T11:17:32.052Z,9.28
2023-02-21T11:18:32.035Z,9.20
2023-02-21T11:19:31.998Z,9.24
2023-02-21T11:20:31.979Z,9.29
2023-02-21T11:21:31.968Z,9.24
2023-02-21T11:22:34.355Z,9.23
2023-02-21T11:23:31.902Z,9.24
2023-02-21T11:24:31.890Z,9.18
2023-02-21T11:25:31.848Z,9.28
2023-02-21T11:26:31.821Z,9.21
2023-02-21T11:27:31.807Z,9.24
2023-02-21T11:28:31.785Z,9.21
2023-02-21T11:29:31.746Z,9.20
2023-02-21T11:30:31.767Z,9.23
2023-02-21T11:31:31.871Z,9.23
2023-02-21T11:32:31.668Z,9.15
2023-02-21T11:33:31.646Z,9.13
2023-02-21T11:34:31.625Z,9.11
2023-02-21T11:35:31.603Z,9.08
2023-02-21T11:36:31.574Z,9.02
2023-02-21T11:37:31.547Z,9.05
2023-02-21T11:38:31.525Z,9.08
2023-02-21T11:39:31.496Z,9.10
2023-02-21T11:40:31.508Z,9.11
2023-02-21T11:41:31.447Z,9.11
2023-02-21T11:42:31.426Z,9.14
2023-02-21T11:43:31.401Z,9.10
2023-02-21T11:44:31.392Z,9.13
2023-02-21T11:45:31.342Z,9.11
2023-02-21T11:46:31.315Z,9.10
2023-02-21T11:47:31.295Z,9.05
2023-02-21T11:48:31.347Z,9.05
2023-02-21T11:49:31.253Z,9.10
2023-02-21T11:50:31.235Z,9.11
2023-02-21T11:51:31.220Z,9.13
2023-02-21T11:52:31.186Z,9.11
2023-02-21T11:53:31.143Z,9.11
2023-02-21T11:54:31.122Z,9.04
2023-02-21T11:55:31.087Z,8.99
2023-02-21T11:56:31.080Z,9.01
2023-02-21T11:57:31.037Z,8.92
2023-02-21T11:58:31.012Z,8.98
2023-02-21T11:59:30.981Z,8.94
2023-02-21T12:00:30.967Z,8.99
2023-02-21T12:01:30.933Z,8.99
2023-02-21T12:02:30.939Z,9.02
2023-02-21T12:03:30.878Z,8.96
2023-02-21T12:04:30.861Z,8.95
2023-02-21T12:05:30.917Z,8.92
2023-02-21T12:06:30.824Z,8.96
2023-02-21T12:07:30.769Z,8.98
2023-02-21T12:08:30.756Z,9.08
2023-02-21T12:09:30.733Z,9.04
2023-02-21T12:10:30.709Z,8.94
2023-02-21T12:11:30.675Z,8.96
2023-02-21T12:12:30.678Z,8.96
2023-02-21T12:13:30.638Z,8.99
2023-02-21T12:14:30.598Z,8.94
2023-02-21T12:15:30.739Z,8.98
2023-02-21T12:16:30.556Z,9.05
2023-02-21T12:17:30.528Z,8.94
2023-02-21T12:18:30.497Z,9.08
2023-02-21T12:19:30.471Z,9.02
2023-02-21T12:20:30.445Z,9.10
2023-02-21T12:21:30.422Z,9.08
2023-02-21T12:22:30.405Z,9.05
2023-02-21T12:23:30.371Z,9.08
2023-02-21T12:24:30.356Z,9.11
2023-02-21T12:25:30.311Z,9.14
2023-02-21T12:26:30.296Z,9.05
2023-02-21T12:27:30.262Z,8.99
2023-02-21T12:28:30.267Z,9.08
2023-02-21T12:29:30.219Z,9.08
2023-02-21T12:30:30.237Z,9.08
2023-02-21T12:31:30.248Z,9.10
2023-02-21T12:32:30.151Z,9.08
2023-02-21T12:33:30.119Z,9.08
2023-02-21T12:34:30.110Z,9.11
2023-02-21T12:35:30.126Z,9.08
2023-02-21T12:36:30.053Z,9.15
2023-02-21T12:37:30.016Z,9.15
2023-02-21T12:38:29.992Z,9.18
2023-02-21T12:39:29.960Z,9.18
2023-02-21T12:40:29.943Z,9.26
2023-02-21T12:41:29.932Z,9.28
2023-02-21T12:42:29.897Z,9.18
2023-02-21T12:43:29.863Z,9.20
2023-02-21T12:44:31.177Z,9.21
2023-02-21T12:45:29.810Z,9.28
2023-02-21T12:46:29.913Z,9.14
2023-02-21T12:47:29.774Z,9.17
2023-02-21T12:48:29.744Z,9.13
2023-02-21T12:49:29.712Z,9.28
2023-02-21T12:50:31.210Z,9.21
2023-02-21T12:51:29.662Z,9.20
2023-02-21T12:52:29.637Z,9.13
2023-02-21T12:53:29.616Z,9.13
2023-02-21T12:54:29.590Z,9.14
2023-02-21T12:55:29.557Z,9.13
2023-02-21T12:56:29.537Z,9.15
2023-02-21T12:57:29.514Z,9.15
2023-02-21T12:58:29.481Z,9.20
2023-02-21T12:59:29.471Z,9.21
2023-02-21T13:00:29.470Z,9.21
2023-02-21T13:01:29.431Z,9.26
2023-02-21T13:02:29.405Z,9.18
2023-02-21T13:03:29.352Z,9.21
2023-02-21T13:04:29.328Z,9.24
2023-02-21T13:05:29.302Z,9.23
2023-02-21T13:06:31.421Z,9.23
2023-02-21T13:07:29.253Z,9.23
2023-02-21T13:08:29.227Z,9.21
2023-02-21T13:09:29.196Z,9.29
2023-02-21T13:10:29.175Z,9.26
2023-02-21T13:11:29.146Z,9.24
2023-02-21T13:12:29.153Z,9.26
2023-02-21T13:13:29.094Z,9.24
2023-02-21T13:14:29.076Z,9.20
2023-02-21T13:15:29.042Z,9.35
2023-02-21T13:16:29.114Z,9.31
2023-02-21T13:17:28.996Z,9.29
2023-02-21T13:18:28.975Z,9.36